Time;durP1;ratioP1;P1;durP2;ratioP2;P2;SDS_P1;SDS_P2;PMS_P1;PMS_P2;Temp;Humidity;BMP_temperature;BMP_pressure;BME280_temperature;BME280_humidity;BME280_pressure;Samples;Min_cycle;Max_cycle;Signal;HPM_P1;HPM_P2
2023/10/28 05:48:17;;;;;;;3.40;1.70;;;;;;;13.66;100.00;99456.38;104632;1280;600986;-71
2023/10/28 05:50:46;;;;;;;3.10;1.20;;;;;;;13.99;100.00;99465.35;107050;1248;61728;-74
2023/10/28 05:53:15;;;;;;;4.30;1.40;;;;;;;14.19;100.00;99470.50;106980;1248;59069;-70
2023/10/28 05:55:44;;;;;;;4.40;1.50;;;;;;;14.36;100.00;99479.49;106946;1260;71056;-68
2023/10/28 05:58:13;;;;;;;3.70;1.60;;;;;;;14.46;99.82;99485.65;106853;1251;72010;-70
2023/10/28 06:00:42;;;;;;;7.90;2.00;;;;;;;14.52;99.92;99495.85;106796;1259;251936;-69
2023/10/28 06:03:12;;;;;;;7.40;1.90;;;;;;;14.51;100.00;99505.23;107105;1244;65050;-70
2023/10/28 06:05:41;;;;;;;4.20;1.90;;;;;;;14.51;100.00;99511.06;107080;1245;61086;-70
2023/10/28 06:08:11;;;;;;;4.00;2.00;;;;;;;14.47;100.00;99513.89;107148;1248;61260;-69
2023/10/28 06:10:40;;;;;;;4.00;1.40;;;;;;;14.42;100.00;99511.42;107147;1248;61942;-70
2023/10/28 06:13:09;;;;;;;4.60;2.00;;;;;;;14.39;100.00;99515.42;107097;1247;61285;-75
2023/10/28 06:15:38;;;;;;;3.30;2.00;;;;;;;14.42;100.00;99521.64;107219;1248;60037;-85
2023/10/28 06:18:08;;;;;;;3.70;1.60;;;;;;;14.44;100.00;99531.39;107184;1248;63603;-72
2023/10/28 06:20:37;;;;;;;5.90;2.00;;;;;;;14.50;100.00;99542.70;107131;1247;61650;-69
2023/10/28 06:23:06;;;;;;;5.10;2.00;;;;;;;14.60;100.00;99550.70;107016;1247;57377;-68
2023/10/28 06:25:35;;;;;;;5.20;2.00;;;;;;;14.74;100.00;99554.30;107151;1245;72267;-69
2023/10/28 06:28:05;;;;;;;5.60;1.80;;;;;;;14.85;99.58;99559.06;107191;1247;72191;-68
2023/10/28 06:30:34;;;;;;;7.70;2.50;;;;;;;14.95;98.59;99570.06;107192;1248;71145;-69
2023/10/28 06:33:03;;;;;;;6.70;2.10;;;;;;;15.06;97.66;99578.45;107144;1244;74940;-69
2023/10/28 06:35:33;;;;;;;7.40;2.40;;;;;;;15.17;96.50;99582.91;107173;1244;61432;-69
2023/10/28 06:38:02;;;;;;;6.20;1.90;;;;;;;15.26;95.70;99577.85;107230;1248;57654;-68
2023/10/28 06:40:31;;;;;;;4.10;1.50;;;;;;;15.37;94.12;99581.94;107264;1255;62007;-70
2023/10/28 06:43:00;;;;;;;7.10;2.90;;;;;;;15.48;93.53;99584.77;107112;1248;60992;-69
2023/10/28 06:45:29;;;;;;;3.40;1.70;;;;;;;15.58;92.57;99583.29;107150;1248;59529;-69
2023/10/28 06:47:58;;;;;;;3.80;1.60;;;;;;;15.68;91.20;99588.15;107126;1248;73015;-69
2023/10/28 06:50:28;;;;;;;6.10;1.70;;;;;;;15.78;90.96;99591.50;107039;1245;62436;-70
2023/10/28 06:52:59;;;;;;;5.00;1.40;;;;;;;15.86;91.05;99594.21;107087;1244;61360;-69
2023/10/28 06:55:28;;;;;;;4.80;1.40;;;;;;;15.94;89.90;99597.25;106886;1248;61776;-70
2023/10/28 06:58:00;;;;;;;3.20;1.50;;;;;;;16.02;88.68;99600.83;106918;1244;70315;-70
2023/10/28 07:00:29;;;;;;;3.10;1.60;;;;;;;16.08;88.09;99605.98;106875;1248;70938;-72
2023/10/28 07:02:58;;;;;;;5.00;2.10;;;;;;;16.16;87.38;99606.81;107160;1254;74307;-73
2023/10/28 07:05:27;;;;;;;4.20;1.90;;;;;;;16.23;87.75;99606.19;107768;1248;58935;-73
2023/10/28 07:14:16;;;;;;;3.20;1.70;;;;;;;16.58;84.74;99607.63;104319;1276;601750;-72
2023/10/28 07:16:45;;;;;;;3.40;1.90;;;;;;;16.63;84.14;99603.94;106780;1252;59203;-70
2023/10/28 07:19:17;;;;;;;3.80;1.60;;;;;;;16.71;84.63;99608.50;106889;1258;60479;-70
2023/10/28 07:21:46;;;;;;;4.90;1.90;;;;;;;16.82;84.73;99619.89;106780;1249;72729;-73
2023/10/28 07:24:15;;;;;;;4.30;1.80;;;;;;;16.90;83.49;99626.45;108826;1246;72755;-69
2023/10/28 07:26:45;;;;;;;2.70;1.60;;;;;;;16.96;82.16;99625.58;106605;1252;262084;-70
2023/10/28 07:29:14;;;;;;;4.30;1.40;;;;;;;17.04;79.45;99630.86;107014;1248;63086;-70
2023/10/28 07:31:43;;;;;;;2.90;1.20;;;;;;;17.13;77.65;99631.94;107015;1249;59054;-68
2023/10/28 07:34:12;;;;;;;3.80;1.20;;;;;;;17.20;77.35;99628.47;106856;1244;59001;-72
2023/10/28 07:36:41;;;;;;;2.00;1.00;;;;;;;17.22;76.12;99617.78;106950;1248;60716;-72
2023/10/28 07:39:10;;;;;;;3.50;1.40;;;;;;;17.35;75.84;99631.83;106945;1254;61304;-73
2023/10/28 07:41:40;;;;;;;3.00;2.10;;;;;;;17.43;75.62;99636.11;106883;1255;69656;-71
2023/10/28 07:44:09;;;;;;;5.20;4.50;;;;;;;17.52;76.01;99639.14;106928;1255;74471;-74
2023/10/28 07:46:38;;;;;;;2.70;1.80;;;;;;;17.60;75.30;99647.86;106982;1245;61555;-73
2023/10/28 07:49:07;;;;;;;2.70;1.50;;;;;;;17.69;73.94;99646.41;106918;1248;60883;-73
2023/10/28 07:51:35;;;;;;;2.30;1.10;;;;;;;17.79;73.55;99644.94;107148;1244;74328;-73
2023/10/28 07:54:05;;;;;;;1.90;1.00;;;;;;;17.84;70.83;99642.40;107225;1248;62143;-71
2023/10/28 07:56:34;;;;;;;2.70;1.00;;;;;;;17.87;69.27;99643.04;107246;1244;70443;-71
2023/10/28 07:59:03;;;;;;;1.80;1.00;;;;;;;17.88;68.65;99646.44;106989;1258;73330;-72
2023/10/28 08:01:34;;;;;;;1.50;0.90;;;;;;;17.90;67.83;99649.78;107199;1248;61528;-69
2023/10/28 08:04:04;;;;;;;2.10;0.80;;;;;;;17.91;67.32;99665.33;107122;1248;60805;-70
2023/10/28 08:06:34;;;;;;;2.10;0.90;;;;;;;17.92;67.03;99666.73;107226;1256;61846;-75
2023/10/28 08:09:08;;;;;;;1.40;0.70;;;;;;;17.98;66.14;99674.09;107165;1248;60826;-72
2023/10/28 08:11:37;;;;;;;2.30;0.80;;;;;;;18.00;65.72;99675.25;106974;1257;59024;-72
2023/10/28 08:14:06;;;;;;;1.70;0.90;;;;;;;18.03;67.12;99677.73;106976;1258;62759;-73
2023/10/28 08:16:35;;;;;;;1.60;0.90;;;;;;;18.09;67.01;99677.91;106681;1250;59078;-72
2023/10/28 08:19:06;;;;;;;1.40;0.70;;;;;;;18.14;66.99;99690.21;106946;1245;60942;-71
2023/10/28 08:21:35;;;;;;;1.80;0.70;;;;;;;18.15;66.13;99695.35;106975;1258;72296;-72
2023/10/28 08:24:08;;;;;;;3.00;1.30;;;;;;;18.20;65.61;99704.61;106912;1244;72095;-71
2023/10/28 08:26:37;;;;;;;2.00;0.90;;;;;;;18.21;65.13;99709.71;106876;1248;60148;-69
2023/10/28 08:29:06;;;;;;;1.60;0.80;;;;;;;18.25;65.89;99710.66;106761;1258;63590;-73
2023/10/28 08:31:36;;;;;;;1.70;0.90;;;;;;;18.31;65.29;99714.41;107011;1248;60307;-70
2023/10/28 08:34:04;;;;;;;2.30;1.20;;;;;;;18.30;65.11;99710.30;106835;1248;61301;-70
2023/10/28 08:36:36;;;;;;;1.40;0.80;;;;;;;18.40;64.38;99718.56;108209;1248;73638;-69
2023/10/28 08:39:07;;;;;;;2.30;0.80;;;;;;;18.45;64.52;99724.71;108707;1248;72675;-69
2023/10/28 08:41:36;;;;;;;2.70;0.90;;;;;;;18.54;62.64;99724.97;106815;1248;70455;-69
2023/10/28 08:44:06;;;;;;;3.10;1.10;;;;;;;18.58;63.22;99734.92;106948;1245;72673;-71
2023/10/28 08:46:37;;;;;;;1.80;1.00;;;;;;;18.67;63.98;99747.61;106848;1245;60786;-72
2023/10/28 08:49:08;;;;;;;2.50;0.80;;;;;;;18.76;63.31;99754.04;106688;1251;59068;-71
2023/10/28 08:51:44;;;;;;;2.70;1.10;;;;;;;18.82;61.31;99755.98;107116;1248;61188;-81
2023/10/28 08:54:16;;;;;;;1.70;0.80;;;;;;;18.82;61.52;99757.96;107028;1259;72132;-70
2023/10/28 08:56:47;;;;;;;3.90;1.40;;;;;;;18.86;61.86;99764.69;107056;1248;70108;-71
2023/10/28 08:59:17;;;;;;;1.20;0.80;;;;;;;18.89;61.60;99765.24;107112;1258;73618;-71
2023/10/28 09:01:47;;;;;;;5.60;2.00;;;;;;;18.89;60.30;99771.51;107105;1248;60661;-71
2023/10/28 09:04:21;;;;;;;2.50;1.10;;;;;;;18.88;61.82;99779.77;107121;1248;59048;-69
2023/10/28 09:06:53;;;;;;;3.60;1.00;;;;;;;18.96;60.13;99786.01;107183;1248;72435;-70
2023/10/28 09:09:22;;;;;;;2.40;1.20;;;;;;;18.98;59.79;99779.83;107475;1244;61531;-70
2023/10/28 09:11:57;;;;;;;2.10;0.70;;;;;;;18.93;60.03;99781.09;107481;1254;59184;-70
2023/10/28 09:14:26;;;;;;;2.20;0.80;;;;;;;18.93;60.01;99773.22;107398;1245;73843;-70
2023/10/28 09:17:00;;;;;;;1.90;0.90;;;;;;;18.98;60.46;99776.20;107466;1244;58117;-72
2023/10/28 09:19:30;;;;;;;2.20;1.00;;;;;;;19.06;61.26;99771.08;107354;1245;59047;-72
2023/10/28 09:21:59;;;;;;;1.30;0.70;;;;;;;19.17;60.48;99776.77;107261;1249;71969;-73
2023/10/28 09:24:27;;;;;;;2.80;0.90;;;;;;;19.23;59.57;99767.86;107427;1241;71821;-71
2023/10/28 09:26:56;;;;;;;2.10;0.70;;;;;;;19.31;59.52;99769.73;107435;1241;70855;-71
2023/10/28 09:29:30;;;;;;;1.90;0.80;;;;;;;19.37;59.18;99777.97;107416;1246;63879;-71
2023/10/28 09:32:08;;;;;;;2.70;0.90;;;;;;;19.42;59.26;99780.16;107332;1244;59396;-70
2023/10/28 09:34:40;;;;;;;1.70;0.90;;;;;;;19.46;58.41;99780.91;107269;1245;57575;-71
2023/10/28 09:37:10;;;;;;;4.30;1.90;;;;;;;19.50;58.40;99778.41;107349;1245;72433;-70
2023/10/28 09:39:41;;;;;;;4.10;2.20;;;;;;;19.50;57.67;99775.47;107378;1244;73569;-70
2023/10/28 09:42:12;;;;;;;2.60;0.90;;;;;;;19.50;57.11;99769.84;107402;1245;69685;-69
2023/10/28 09:44:44;;;;;;;5.00;1.10;;;;;;;19.50;56.83;99781.14;107174;1247;64105;-69
2023/10/28 09:47:22;;;;;;;2.10;1.20;;;;;;;19.54;56.34;99778.68;107181;1252;60348;-70
2023/10/28 09:50:00;;;;;;;1.30;0.90;;;;;;;19.61;56.12;99780.52;107404;1244;59059;-63
2023/10/28 09:52:32;;;;;;;1.80;1.00;;;;;;;19.58;55.86;99774.28;107340;1250;71519;-64
2023/10/28 09:55:09;;;;;;;4.30;0.90;;;;;;;19.63;56.24;99777.80;107343;1245;60802;-65
2023/10/28 09:57:39;;;;;;;2.80;1.00;;;;;;;19.71;56.47;99777.46;108737;1241;59140;-64
2023/10/28 10:00:19;;;;;;;1.80;0.80;;;;;;;19.80;56.30;99783.84;109677;1242;73864;-65
2023/10/28 10:03:19;;;;;;;1.80;0.90;;;;;;;19.82;56.23;99784.23;109614;1245;60331;-64
2023/10/28 10:05:50;;;;;;;1.80;0.80;;;;;;;19.88;55.96;99784.35;108217;1243;59395;-66
2023/10/28 10:08:24;;;;;;;2.50;1.40;;;;;;;19.94;54.22;99782.23;109658;1245;61214;-65
2023/10/28 10:10:57;;;;;;;2.50;1.10;;;;;;;20.08;53.68;99788.52;108494;1245;71109;-65
2023/10/28 10:13:26;;;;;;;2.50;0.90;;;;;;;20.19;54.49;99785.35;107321;1251;70344;-65
2023/10/28 10:16:03;;;;;;;2.30;1.10;;;;;;;20.43;53.84;99788.30;107419;1241;74274;-64
2023/10/28 10:18:39;;;;;;;3.70;1.60;;;;;;;20.57;52.88;99793.57;107175;1255;59099;-78
2023/10/28 10:21:12;;;;;;;4.00;1.20;;;;;;;20.80;51.91;99796.43;107375;1245;59046;-71
2023/10/28 10:23:43;;;;;;;;;;;;;;;20.97;50.37;99797.02;107421;1244;61899;-71
2023/10/28 10:26:31;;;;;;;5.00;1.90;;;;;;;21.36;48.37;99797.64;107392;1245;72043;-72
2023/10/28 10:29:06;;;;;;;3.60;1.10;;;;;;;21.62;46.84;99802.77;107507;1245;61208;-75
2023/10/28 10:31:36;;;;;;;2.50;1.20;;;;;;;21.55;46.52;99804.44;107274;1249;71843;-73
2023/10/28 10:34:09;;;;;;;1.60;0.90;;;;;;;21.48;47.40;99809.55;107624;1245;58356;-73
2023/10/28 10:36:43;;;;;;;2.20;0.80;;;;;;;21.47;48.27;99812.13;107447;1245;57490;-73
2023/10/28 10:39:18;;;;;;;4.30;1.30;;;;;;;21.48;49.29;99818.18;107464;1248;72436;-73
2023/10/28 10:41:49;;;;;;;2.70;1.00;;;;;;;21.89;47.09;99816.54;107388;1241;61401;-72
2023/10/28 10:44:32;;;;;;;2.40;1.00;;;;;;;22.14;46.47;99821.40;107530;1245;60390;-73
2023/10/28 10:47:03;;;;;;;3.40;1.20;;;;;;;22.27;46.23;99820.52;107518;1245;72933;-72
2023/10/28 10:49:32;;;;;;;2.10;1.00;;;;;;;22.60;44.70;99823.77;107492;1242;60654;-72
2023/10/28 10:52:03;;;;;;;2.90;1.30;;;;;;;22.85;43.95;99824.73;107534;1245;57433;-73
2023/10/28 10:54:38;;;;;;;1.80;1.00;;;;;;;22.79;44.62;99828.09;107530;1242;71858;-71
2023/10/28 10:57:09;;;;;;;4.30;1.40;;;;;;;22.97;44.18;99829.86;107450;1255;61279;-72
2023/10/28 10:59:38;;;;;;;2.70;1.10;;;;;;;23.24;42.97;99833.23;107230;1247;70297;-72
2023/10/28 11:02:10;;;;;;;1.90;1.00;;;;;;;23.27;42.30;99828.30;107513;1255;63533;-72
2023/10/28 11:04:40;;;;;;;3.70;1.70;;;;;;;23.46;42.44;99832.39;107410;1244;57929;-73
2023/10/28 11:07:09;;;;;;;3.50;1.60;;;;;;;23.43;42.46;99831.64;107470;1241;59545;-73
2023/10/28 11:09:42;;;;;;;3.60;1.30;;;;;;;23.54;42.70;99833.58;107420;1251;73715;-73
2023/10/28 11:12:11;;;;;;;3.90;1.00;;;;;;;23.86;41.79;99834.52;107452;1255;73472;-72
2023/10/28 11:14:41;;;;;;;1.20;0.80;;;;;;;23.74;41.82;99836.06;107456;1246;60557;-71
2023/10/28 11:17:10;;;;;;;4.30;2.30;;;;;;;23.84;41.60;99839.09;107409;1245;73017;-72
2023/10/28 11:19:50;;;;;;;2.00;0.90;;;;;;;23.98;40.92;99841.15;107418;1245;62444;-75
2023/10/28 11:22:19;;;;;;;2.10;0.90;;;;;;;23.68;41.03;99841.61;107427;1246;60635;-73
2023/10/28 11:24:57;;;;;;;3.10;1.00;;;;;;;23.32;41.54;99841.35;107140;1255;63506;-71
2023/10/28 11:27:28;;;;;;;2.80;1.00;;;;;;;23.59;40.82;99843.17;107281;1243;61069;-72
2023/10/28 11:29:57;;;;;;;3.00;1.40;;;;;;;23.72;40.34;99843.23;107240;1246;69677;-73
2023/10/28 11:32:29;;;;;;;11.30;6.60;;;;;;;23.43;40.50;99844.80;107273;1244;74226;-73
2023/10/28 11:34:59;;;;;;;6.10;3.50;;;;;;;23.52;41.22;99852.21;107222;1245;60078;-72
2023/10/28 11:37:28;;;;;;;3.60;1.60;;;;;;;23.81;40.01;99853.30;107181;1244;60351;-72
2023/10/28 11:39:57;;;;;;;4.50;2.10;;;;;;;23.55;40.81;99858.34;107149;1255;73815;-72
2023/10/28 11:42:27;;;;;;;4.90;2.30;;;;;;;23.68;40.42;99860.23;107196;1245;72475;-72
2023/10/28 11:44:56;;;;;;;4.80;1.70;;;;;;;23.31;40.66;99858.71;107246;1242;72484;-72
2023/10/28 11:47:27;;;;;;;4.30;1.80;;;;;;;23.15;40.47;99860.17;107268;1253;74182;-72
2023/10/28 11:49:57;;;;;;;4.40;1.60;;;;;;;22.88;40.61;99879.58;107186;1245;58985;-71
2023/10/28 11:52:26;;;;;;;3.90;2.10;;;;;;;22.49;41.07;99876.91;107122;1255;59427;-73
2023/10/28 11:54:55;;;;;;;4.90;1.70;;;;;;;22.09;41.88;99886.94;107212;1243;74166;-73
2023/10/28 11:57:24;;;;;;;4.10;1.70;;;;;;;21.94;42.26;99888.53;107219;1245;60688;-76
2023/10/28 11:59:53;;;;;;;4.20;1.90;;;;;;;21.78;42.74;99887.66;107212;1244;59945;-72
2023/10/28 12:02:22;;;;;;;4.60;2.00;;;;;;;21.66;43.39;99901.64;107263;1241;62413;-73
2023/10/28 12:04:51;;;;;;;2.90;1.40;;;;;;;21.47;44.03;99900.79;107261;1244;59996;-73
2023/10/28 12:07:20;;;;;;;5.70;2.00;;;;;;;21.53;44.48;99904.31;107347;1245;60975;-72
2023/10/28 12:09:49;;;;;;;5.20;2.20;;;;;;;21.45;44.83;99909.73;107370;1245;62748;-72
2023/10/28 12:12:18;;;;;;;5.20;1.90;;;;;;;21.50;44.90;99920.70;107400;1241;71343;-72
2023/10/28 12:14:48;;;;;;;5.90;2.30;;;;;;;21.48;45.07;99925.73;107419;1241;69989;-73
2023/10/28 12:17:17;;;;;;;5.00;2.70;;;;;;;21.42;44.92;99913.73;107342;1250;73153;-74
2023/10/28 12:19:46;;;;;;;2.60;1.40;;;;;;;21.49;45.51;99927.11;107303;1245;60564;-73
2023/10/28 12:22:15;;;;;;;4.10;1.70;;;;;;;21.54;44.75;99929.61;107404;1245;60283;-72
2023/10/28 12:24:43;;;;;;;7.40;3.70;;;;;;;21.45;43.13;99940.55;107404;1241;74356;-73
2023/10/28 12:27:13;;;;;;;2.30;1.20;;;;;;;21.30;42.26;99943.55;107393;1243;72459;-73
2023/10/28 12:29:45;;;;;;;6.30;0.90;;;;;;;21.24;41.92;99945.04;107281;1251;70019;-73
2023/10/28 12:32:15;;;;;;;2.40;0.90;;;;;;;21.10;41.98;99942.92;107292;1255;63615;-73
2023/10/28 12:34:45;;;;;;;4.70;1.30;;;;;;;21.03;42.06;99944.36;106921;1255;57975;-71
2023/10/28 12:37:16;;;;;;;6.30;3.10;;;;;;;20.97;42.52;99952.62;107102;1255;58893;-73
2023/10/28 12:39:46;;;;;;;3.20;1.70;;;;;;;21.00;42.99;99966.45;107004;1241;74078;-72
2023/10/28 12:42:16;;;;;;;2.00;1.30;;;;;;;20.92;42.65;99962.77;107145;1248;61322;-73
2023/10/28 12:44:45;;;;;;;3.10;1.50;;;;;;;20.80;43.41;99961.52;107383;1246;69123;-72
2023/10/28 12:47:14;;;;;;;3.00;1.30;;;;;;;20.75;43.82;99968.71;107364;1241;72712;-71
2023/10/28 12:49:43;;;;;;;2.00;1.20;;;;;;;20.74;43.53;99974.55;107411;1241;61357;-72
2023/10/28 12:52:11;;;;;;;2.40;1.10;;;;;;;20.65;43.47;99970.65;107320;1245;60521;-74
2023/10/28 12:54:40;;;;;;;2.20;1.10;;;;;;;20.64;43.57;99969.91;107374;1245;63411;-72
2023/10/28 12:57:11;;;;;;;3.80;1.40;;;;;;;20.59;44.00;99976.05;107435;1246;61411;-73
2023/10/28 12:59:46;;;;;;;4.50;3.00;;;;;;;20.58;44.71;99977.88;107436;1252;59182;-71
2023/10/28 13:02:16;;;;;;;5.00;2.50;;;;;;;20.57;45.42;99983.33;107429;1255;63024;-73
2023/10/28 13:04:45;;;;;;;5.70;1.90;;;;;;;20.58;45.57;99994.40;107181;1244;57806;-71
2023/10/28 13:07:14;;;;;;;4.10;2.20;;;;;;;20.52;46.20;99988.06;107334;1243;61079;-74
2023/10/28 13:09:43;;;;;;;4.50;2.50;;;;;;;20.49;46.83;99985.41;107418;1247;74253;-75
2023/10/28 13:12:11;;;;;;;4.10;2.30;;;;;;;20.48;47.32;99990.69;107186;1241;72506;-74
2023/10/28 13:14:40;;;;;;;2.50;1.40;;;;;;;20.51;47.64;99992.47;107329;1244;61011;-70
2023/10/28 13:17:10;;;;;;;3.20;1.60;;;;;;;20.50;47.77;99987.77;107433;1252;63271;-72
2023/10/28 13:19:39;;;;;;;4.00;1.80;;;;;;;20.50;48.50;99987.31;107279;1248;61012;-72
2023/10/28 13:22:07;;;;;;;1.30;0.90;;;;;;;20.60;48.16;99987.56;106975;1248;61698;-73
2023/10/28 13:24:38;;;;;;;1.50;0.70;;;;;;;20.52;48.54;99997.34;107215;1245;63255;-72
2023/10/28 13:27:07;;;;;;;1.60;0.80;;;;;;;20.75;47.99;99998.64;107324;1242;71342;-72
2023/10/28 13:29:37;;;;;;;2.20;1.20;;;;;;;20.94;47.65;100005.54;107239;1242;70767;-72
2023/10/28 13:32:08;;;;;;;2.40;1.40;;;;;;;21.47;47.20;100000.71;107243;1245;73552;-73
2023/10/28 13:34:38;;;;;;;3.20;1.70;;;;;;;22.13;46.33;99997.20;107348;1245;59113;-72
2023/10/28 13:37:08;;;;;;;4.70;2.70;;;;;;;22.84;44.00;100001.66;107318;1245;58989;-75
2023/10/28 13:39:36;;;;;;;3.70;1.20;;;;;;;23.66;42.67;100004.11;107344;1244;72730;-73
2023/10/28 13:42:06;;;;;;;5.70;3.00;;;;;;;24.11;41.40;100007.05;107354;1245;61279;-73
2023/10/28 13:44:35;;;;;;;11.90;6.20;;;;;;;24.34;40.47;100013.83;107444;1252;59954;-73
2023/10/28 13:47:04;;;;;;;5.00;2.10;;;;;;;23.93;40.17;100021.70;107427;1241;63153;-72
2023/10/28 13:49:33;;;;;;;6.10;1.90;;;;;;;23.61;40.09;100027.59;107378;1245;58996;-72
2023/10/28 13:52:03;;;;;;;4.00;1.70;;;;;;;23.53;40.34;100035.90;107382;1245;59217;-71
2023/10/28 13:54:33;;;;;;;2.40;1.10;;;;;;;23.62;40.40;100040.52;107387;1244;62127;-72
2023/10/28 13:57:03;;;;;;;5.50;1.60;;;;;;;23.71;40.38;100043.56;107299;1241;70753;-74
2023/10/28 13:59:32;;;;;;;4.00;1.60;;;;;;;23.85;40.29;100053.95;107250;1255;59837;-73
2023/10/28 14:02:02;;;;;;;2.50;1.10;;;;;;;23.95;40.31;100056.20;107221;1255;62780;-75
2023/10/28 14:04:31;;;;;;;2.90;1.00;;;;;;;24.07;40.07;100055.15;107192;1245;59108;-72
2023/10/28 14:07:01;;;;;;;2.00;1.00;;;;;;;24.17;40.05;100054.38;107187;1245;59054;-72
2023/10/28 14:09:31;;;;;;;2.10;0.80;;;;;;;24.29;39.79;100055.95;107231;1255;72968;-71
2023/10/28 14:12:00;;;;;;;2.90;1.10;;;;;;;24.19;39.96;100060.94;107075;1255;61264;-72
2023/10/28 14:14:29;;;;;;;2.30;0.90;;;;;;;24.06;39.87;100065.73;106940;1255;59789;-71
2023/10/28 14:16:58;;;;;;;2.70;0.80;;;;;;;23.85;40.17;100068.10;106953;1255;65162;-72
2023/10/28 14:19:27;;;;;;;2.60;0.80;;;;;;;23.30;40.69;100073.16;107227;1244;59112;-72
2023/10/28 14:21:56;;;;;;;1.50;0.80;;;;;;;22.61;42.06;100075.28;107222;1245;60968;-71
2023/10/28 14:24:25;;;;;;;3.60;0.80;;;;;;;22.20;43.55;100076.02;107186;1252;73891;-72
2023/10/28 14:26:55;;;;;;;3.90;2.30;;;;;;;22.37;43.27;100078.61;107186;1244;61123;-72
2023/10/28 14:29:24;;;;;;;11.10;5.50;;;;;;;22.05;44.03;100083.03;107244;1245;60504;-72
2023/10/28 14:31:54;;;;;;;4.00;1.40;;;;;;;21.50;45.16;100086.91;107230;1245;63026;-74
2023/10/28 14:34:23;;;;;;;3.40;1.30;;;;;;;20.93;46.78;100091.00;107194;1244;61034;-72
2023/10/28 14:36:51;;;;;;;7.20;4.80;;;;;;;20.81;47.63;100098.33;107037;1242;61523;-71
2023/10/28 14:39:20;;;;;;;5.00;1.80;;;;;;;20.53;48.46;100104.45;107112;1253;74107;-73
2023/10/28 14:41:49;;;;;;;10.30;6.10;;;;;;;20.17;49.84;100099.89;107225;1255;73070;-71
2023/10/28 14:44:18;;;;;;;7.40;4.10;;;;;;;19.84;50.96;100101.23;107213;1244;60449;-71
2023/10/28 14:46:47;;;;;;;9.60;5.20;;;;;;;19.53;52.40;100106.86;107255;1245;65904;-71
2023/10/28 14:49:17;;;;;;;20.10;9.70;;;;;;;19.21;53.71;100106.77;107145;1255;61391;-73
2023/10/28 14:51:45;;;;;;;11.30;6.40;;;;;;;18.99;55.34;100109.44;107204;1245;59194;-74
2023/10/28 14:54:14;;;;;;;5.50;2.90;;;;;;;18.83;55.75;100113.42;107218;1253;63569;-74
2023/10/28 14:56:43;;;;;;;7.30;2.20;;;;;;;18.63;56.34;100120.23;107221;1255;72053;-71
2023/10/28 14:59:12;;;;;;;5.80;2.60;;;;;;;18.43;57.47;100125.24;107165;1255;69797;-72
2023/10/28 15:01:41;;;;;;;5.00;1.80;;;;;;;18.27;58.38;100129.94;107239;1245;62622;-73
2023/10/28 15:04:10;;;;;;;2.20;1.30;;;;;;;18.10;59.17;100133.94;107220;1246;59021;-73
2023/10/28 15:06:39;;;;;;;2.80;1.30;;;;;;;17.93;58.95;100140.52;107161;1245;59030;-75
2023/10/28 15:09:08;;;;;;;3.70;1.80;;;;;;;17.72;62.52;100146.38;107219;1245;72029;-73
2023/10/28 15:11:37;;;;;;;6.20;2.60;;;;;;;17.55;63.47;100151.52;107197;1245;62054;-70
2023/10/28 15:14:07;;;;;;;6.80;3.10;;;;;;;17.37;68.68;100157.21;107235;1255;59439;-73
2023/10/28 15:16:36;;;;;;;5.60;2.60;;;;;;;17.18;72.53;100160.88;106936;1248;72709;-74
2023/10/28 15:19:05;;;;;;;8.70;3.60;;;;;;;16.99;74.92;100163.83;107096;1244;60826;-72
2023/10/28 15:21:34;;;;;;;10.50;4.50;;;;;;;16.81;72.37;100163.49;107221;1245;60798;-71
2023/10/28 15:24:03;;;;;;;5.70;3.00;;;;;;;16.62;71.65;100162.48;107005;1249;73618;-73
2023/10/28 15:26:33;;;;;;;9.90;4.70;;;;;;;16.44;73.45;100165.48;107206;1250;61163;-72
2023/10/28 15:29:02;;;;;;;18.20;7.20;;;;;;;16.25;77.90;100170.08;107243;1246;59821;-73
2023/10/28 15:31:31;;;;;;;12.60;6.50;;;;;;;16.04;79.56;100167.65;107175;1244;62438;-72
2023/10/28 15:34:01;;;;;;;8.50;4.40;;;;;;;15.85;80.14;100169.02;107207;1245;60147;-73
2023/10/28 15:36:30;;;;;;;9.80;3.80;;;;;;;15.67;77.82;100174.36;107240;1246;58653;-73
2023/10/28 15:38:59;;;;;;;7.10;4.70;;;;;;;15.46;80.74;100177.02;107241;1246;73514;-73
2023/10/28 15:41:27;;;;;;;15.70;5.50;;;;;;;15.27;86.06;100174.23;107243;1255;71219;-73
2023/10/28 15:43:56;;;;;;;9.30;4.20;;;;;;;15.09;86.88;100183.34;107085;1250;70781;-74
2023/10/28 15:46:28;;;;;;;8.60;4.70;;;;;;;14.90;92.43;100189.79;107297;1245;63675;-74
2023/10/28 15:48:59;;;;;;;9.90;4.00;;;;;;;14.74;92.33;100193.98;107237;1245;61245;-73
2023/10/28 15:51:29;;;;;;;9.20;5.10;;;;;;;14.59;91.02;100200.91;107281;1245;61574;-73
2023/10/28 15:53:58;;;;;;;11.40;6.00;;;;;;;14.44;94.98;100209.52;107244;1251;75132;-72
2023/10/28 15:56:26;;;;;;;12.40;5.70;;;;;;;14.28;93.77;100212.76;107197;1244;61782;-72
2023/10/28 15:58:55;;;;;;;15.90;6.20;;;;;;;14.13;98.89;100217.92;107215;1255;59204;-74
2023/10/28 16:01:24;;;;;;;22.10;6.90;;;;;;;13.98;100.00;100219.50;107307;1252;62725;-75
2023/10/28 16:03:53;;;;;;;14.50;5.60;;;;;;;13.81;100.00;100225.11;107229;1245;59568;-72
2023/10/28 16:06:24;;;;;;;15.20;5.60;;;;;;;13.68;100.00;100227.43;107245;1246;58985;-73
2023/10/28 16:08:53;;;;;;;16.20;7.10;;;;;;;13.59;100.00;100234.55;107074;1247;73328;-75
2023/10/28 16:11:21;;;;;;;16.60;7.00;;;;;;;13.51;100.00;100239.84;107329;1253;72523;-73
2023/10/28 16:13:50;;;;;;;16.00;6.40;;;;;;;13.42;100.00;100239.38;107415;1245;60110;-73
2023/10/28 16:16:19;;;;;;;11.70;5.90;;;;;;;13.29;100.00;100240.04;107314;1255;62459;-72
2023/10/28 16:18:48;;;;;;;14.20;6.30;;;;;;;13.14;100.00;100243.69;107420;1245;59081;-73
2023/10/28 16:21:17;;;;;;;13.60;6.20;;;;;;;13.01;100.00;100249.23;107388;1255;61240;-73
2023/10/28 16:23:49;;;;;;;24.10;14.70;;;;;;;12.86;100.00;100248.84;107327;1242;74225;-73
2023/10/28 16:26:18;;;;;;;18.30;9.50;;;;;;;12.72;100.00;100252.83;107162;1255;61748;-71
2023/10/28 16:28:47;;;;;;;18.70;8.00;;;;;;;12.61;100.00;100260.80;107317;1255;59151;-71
2023/10/28 16:31:17;;;;;;;14.80;7.40;;;;;;;12.51;100.00;100261.70;107207;1245;62338;-74
2023/10/28 16:33:46;;;;;;;16.70;8.50;;;;;;;12.37;100.00;100262.39;107375;1246;58791;-74
2023/10/28 16:36:15;;;;;;;17.60;8.70;;;;;;;12.23;100.00;100266.02;107374;1245;59058;-75
2023/10/28 16:38:46;;;;;;;17.30;7.80;;;;;;;12.12;100.00;100271.58;107478;1253;72600;-72
2023/10/28 16:41:15;;;;;;;22.50;10.30;;;;;;;12.04;100.00;100273.63;107403;1241;62456;-72
2023/10/28 16:43:46;;;;;;;20.60;9.00;;;;;;;11.93;100.00;100279.58;107476;1253;59524;-73
2023/10/28 16:46:15;;;;;;;21.50;11.60;;;;;;;11.81;100.00;100281.62;107425;1255;73725;-73
2023/10/28 16:48:46;;;;;;;26.50;12.80;;;;;;;11.69;100.00;100280.91;107429;1248;59119;-71
2023/10/28 16:51:15;;;;;;;25.40;11.90;;;;;;;11.55;100.00;100284.38;107251;1241;59034;-72
2023/10/28 16:53:44;;;;;;;44.40;24.40;;;;;;;11.44;100.00;100290.85;107241;1255;62450;-72
2023/10/28 16:56:15;;;;;;;28.00;12.30;;;;;;;11.37;100.00;100294.05;107288;1247;71947;-72
2023/10/28 16:58:45;;;;;;;21.70;11.00;;;;;;;11.29;100.00;100294.70;107243;1244;70260;-72
2023/10/28 17:01:14;;;;;;;25.10;11.30;;;;;;;11.22;100.00;100293.39;107158;1247;74174;-74
2023/10/28 17:03:43;;;;;;;20.20;11.30;;;;;;;11.15;100.00;100298.61;107140;1245;62073;-72
2023/10/28 17:06:12;;;;;;;19.30;9.90;;;;;;;11.10;100.00;100296.91;107425;1241;59177;-75
2023/10/28 17:08:41;;;;;;;24.20;9.40;;;;;;;11.01;100.00;100294.36;107153;1242;73467;-72
2023/10/28 17:11:11;;;;;;;23.10;9.60;;;;;;;10.94;100.00;100298.61;107231;1255;72491;-73
2023/10/28 17:13:40;;;;;;;18.30;8.90;;;;;;;10.84;100.00;100304.78;107224;1255;69468;-72
2023/10/28 17:16:11;;;;;;;21.80;9.00;;;;;;;10.75;100.00;100307.22;107144;1255;74398;-72
2023/10/28 17:18:40;;;;;;;21.30;8.00;;;;;;;10.65;100.00;100311.17;107278;1253;62710;-73
2023/10/28 17:21:09;;;;;;;23.50;8.20;;;;;;;10.59;100.00;100315.84;107321;1245;59089;-73
2023/10/28 17:23:38;;;;;;;18.40;8.00;;;;;;;10.57;100.00;100318.92;107172;1245;73738;-73
2023/10/28 17:26:08;;;;;;;16.30;8.50;;;;;;;10.51;100.00;100319.92;107249;1255;62858;-72